UAL575 KIAH-KMSY
Flight info
| Callsign | UAL575 |
|---|---|
| Flight time | N/A |
| Altitude | 29000 |
| Route | GUMBY3 GUSTI AWDAD AWDAD1 |
| Aircraft | A320/M-SDE3FGHIRWY/LB1 |
Departure
| Time | 2026-05-01 13:50 |
|---|---|
| Airport | George Bush Intercontinental Airport (KIAH) |
Arrival
| Time | N/A |
|---|---|
| Airport | Louis Armstrong New Orleans International Airport (KMSY) |
| Time | Latitude | Longitude | Altitude | Speed | Heading |
|---|---|---|---|---|---|
| 2026-05-01 13:15 | 29.98477 | -95.33284 | 107 ft | 0 kts | 74° |
| 2026-05-01 13:22 | 29.98477 | -95.33285 | 98 ft | 0 kts | 74° |
| 2026-05-01 13:28 | 29.98477 | -95.33284 | 98 ft | 0 kts | 74° |
| 2026-05-01 13:36 | 29.98474 | -95.33298 | 107 ft | 4 kts | 68° |
| 2026-05-01 13:36 | 29.98460 | -95.33324 | 105 ft | 4 kts | 42° |
| 2026-05-01 13:36 | 29.98418 | -95.33347 | 106 ft | 4 kts | 33° |
| 2026-05-01 13:37 | 29.98404 | -95.33367 | 107 ft | 4 kts | 92° |
| 2026-05-01 13:37 | 29.98413 | -95.33392 | 104 ft | 4 kts | 145° |
| 2026-05-01 13:37 | 29.98436 | -95.33399 | 106 ft | 4 kts | 180° |
| 2026-05-01 13:37 | 29.98444 | -95.33399 | 107 ft | 2 kts | 180° |
| 2026-05-01 13:41 | 29.98436 | -95.33399 | 107 ft | 4 kts | 180° |
| 2026-05-01 13:41 | 29.98408 | -95.33399 | 107 ft | 4 kts | 180° |
| 2026-05-01 13:41 | 29.98377 | -95.33399 | 107 ft | 7 kts | 180° |
| 2026-05-01 13:41 | 29.98317 | -95.33398 | 107 ft | 9 kts | 180° |
| 2026-05-01 13:42 | 29.98257 | -95.33399 | 107 ft | 8 kts | 186° |
| 2026-05-01 13:42 | 29.98226 | -95.33449 | 107 ft | 9 kts | 269° |
| 2026-05-01 13:42 | 29.98227 | -95.33536 | 107 ft | 11 kts | 270° |
| 2026-05-01 13:42 | 29.98227 | -95.33630 | 107 ft | 13 kts | 271° |
| 2026-05-01 13:43 | 29.98238 | -95.33734 | 107 ft | 13 kts | 278° |
| 2026-05-01 13:43 | 29.98244 | -95.33843 | 107 ft | 14 kts | 270° |
| 2026-05-01 13:43 | 29.98245 | -95.33956 | 107 ft | 14 kts | 274° |
| 2026-05-01 13:43 | 29.98271 | -95.34060 | 107 ft | 14 kts | 300° |
| 2026-05-01 13:44 | 29.98303 | -95.34171 | 107 ft | 16 kts | 270° |
| 2026-05-01 13:44 | 29.98304 | -95.34302 | 107 ft | 17 kts | 270° |
| 2026-05-01 13:44 | 29.98280 | -95.34429 | 107 ft | 16 kts | 241° |
| 2026-05-01 13:44 | 29.98258 | -95.34556 | 107 ft | 17 kts | 270° |
| 2026-05-01 13:45 | 29.98257 | -95.34704 | 107 ft | 20 kts | 270° |
| 2026-05-01 13:45 | 29.98258 | -95.34861 | 107 ft | 19 kts | 269° |
| 2026-05-01 13:45 | 29.98257 | -95.35015 | 107 ft | 19 kts | 270° |
| 2026-05-01 13:45 | 29.98279 | -95.35134 | 106 ft | 13 kts | 317° |
| 2026-05-01 13:46 | 29.98368 | -95.35192 | 107 ft | 16 kts | 331° |
| 2026-05-01 13:46 | 29.98453 | -95.35246 | 107 ft | 18 kts | 332° |
| 2026-05-01 13:46 | 29.98568 | -95.35316 | 107 ft | 18 kts | 332° |
| 2026-05-01 13:46 | 29.98679 | -95.35383 | 107 ft | 17 kts | 332° |
| 2026-05-01 13:47 | 29.98783 | -95.35446 | 107 ft | 16 kts | 332° |
| 2026-05-01 13:47 | 29.98885 | -95.35494 | 107 ft | 15 kts | 353° |
| 2026-05-01 13:47 | 29.98988 | -95.35491 | 107 ft | 14 kts | 3° |
| 2026-05-01 13:47 | 29.99086 | -95.35485 | 107 ft | 14 kts | 2° |
| 2026-05-01 13:48 | 29.99177 | -95.35483 | 107 ft | 13 kts | 0° |
| 2026-05-01 13:48 | 29.99263 | -95.35483 | 107 ft | 12 kts | 360° |
| 2026-05-01 13:48 | 29.99333 | -95.35483 | 107 ft | 4 kts | 1° |
| 2026-05-01 13:48 | 29.99342 | -95.35466 | 107 ft | 2 kts | 85° |
| 2026-05-01 13:49 | 29.99341 | -95.35454 | 107 ft | 0 kts | 89° |
| 2026-05-01 13:49 | 29.99343 | -95.35195 | 109 ft | 67 kts | 90° |
| 2026-05-01 13:50 | 29.99343 | -95.34436 | 105 ft | 122 kts | 90° |
| 2026-05-01 13:50 | 29.99347 | -95.33260 | 129 ft | 163 kts | 82° |
| 2026-05-01 13:50 | 29.99376 | -95.31961 | 704 ft | 164 kts | 81° |
| 2026-05-01 13:50 | 29.99419 | -95.30652 | 1315 ft | 166 kts | 85° |
| 2026-05-01 13:51 | 29.99353 | -95.29299 | 1941 ft | 176 kts | 93° |
| 2026-05-01 13:51 | 29.98998 | -95.27836 | 2169 ft | 205 kts | 106° |
| 2026-05-01 13:51 | 29.98438 | -95.26198 | 2486 ft | 233 kts | 109° |
| 2026-05-01 13:51 | 29.97796 | -95.24401 | 3093 ft | 248 kts | 110° |
| 2026-05-01 13:52 | 29.97148 | -95.22534 | 3744 ft | 255 kts | 112° |
| 2026-05-01 13:52 | 29.96507 | -95.20599 | 3936 ft | 260 kts | 112° |
| 2026-05-01 13:52 | 29.95886 | -95.18641 | 3971 ft | 261 kts | 111° |
| 2026-05-01 13:52 | 29.95278 | -95.16667 | 3968 ft | 260 kts | 112° |
| 2026-05-01 13:53 | 29.94684 | -95.14701 | 3984 ft | 259 kts | 111° |
| 2026-05-01 13:53 | 29.93902 | -95.10677 | 4067 ft | 260 kts | 91° |
| 2026-05-01 13:53 | 29.93956 | -95.08585 | 4315 ft | 265 kts | 92° |
| 2026-05-01 13:54 | 29.93853 | -95.06464 | 4589 ft | 266 kts | 99° |
| 2026-05-01 13:54 | 29.93634 | -95.04322 | 5375 ft | 270 kts | 100° |
| 2026-05-01 13:54 | 29.93410 | -95.02153 | 6213 ft | 275 kts | 101° |
| 2026-05-01 13:54 | 29.93178 | -94.99921 | 6906 ft | 283 kts | 101° |
| 2026-05-01 13:55 | 29.92944 | -94.97647 | 7675 ft | 289 kts | 101° |
| 2026-05-01 13:55 | 29.92708 | -94.95326 | 8425 ft | 294 kts | 101° |
| 2026-05-01 13:55 | 29.92470 | -94.92963 | 9160 ft | 300 kts | 101° |
| 2026-05-01 13:55 | 29.92227 | -94.90548 | 9881 ft | 306 kts | 102° |
| 2026-05-01 13:56 | 29.91971 | -94.88042 | 10193 ft | 327 kts | 102° |
| 2026-05-01 13:56 | 29.91691 | -94.85353 | 10462 ft | 346 kts | 101° |
| 2026-05-01 13:56 | 29.91404 | -94.82566 | 10982 ft | 355 kts | 101° |
| 2026-05-01 13:56 | 29.91115 | -94.79715 | 11573 ft | 361 kts | 101° |
| 2026-05-01 13:57 | 29.90826 | -94.76815 | 12186 ft | 367 kts | 101° |
| 2026-05-01 13:57 | 29.90631 | -94.74867 | 12588 ft | 371 kts | 101° |
| 2026-05-01 13:57 | 29.90231 | -94.70912 | 13389 ft | 379 kts | 101° |
| 2026-05-01 13:57 | 29.89921 | -94.67874 | 13952 ft | 385 kts | 101° |
| 2026-05-01 13:58 | 29.89603 | -94.64774 | 14465 ft | 391 kts | 101° |
| 2026-05-01 13:58 | 29.89284 | -94.61643 | 14971 ft | 397 kts | 101° |
| 2026-05-01 13:58 | 29.89070 | -94.59543 | 15304 ft | 400 kts | 101° |
| 2026-05-01 13:58 | 29.88741 | -94.56331 | 15823 ft | 406 kts | 101° |
| 2026-05-01 13:59 | 29.88405 | -94.53093 | 16388 ft | 410 kts | 101° |
| 2026-05-01 13:59 | 29.88063 | -94.49810 | 16868 ft | 416 kts | 101° |
| 2026-05-01 13:59 | 29.87715 | -94.46471 | 17340 ft | 422 kts | 101° |
| 2026-05-01 13:59 | 29.87364 | -94.43087 | 17802 ft | 429 kts | 101° |
| 2026-05-01 14:00 | 29.87003 | -94.39638 | 18255 ft | 436 kts | 102° |
| 2026-05-01 14:00 | 29.86638 | -94.36150 | 18668 ft | 442 kts | 101° |
| 2026-05-01 14:00 | 29.86270 | -94.32624 | 19129 ft | 446 kts | 100° |
| 2026-05-01 14:00 | 29.85986 | -94.29035 | 19626 ft | 450 kts | 97° |
| 2026-05-01 14:01 | 29.85826 | -94.25419 | 20132 ft | 454 kts | 94° |
| 2026-05-01 14:01 | 29.85747 | -94.21768 | 20625 ft | 458 kts | 93° |
| 2026-05-01 14:01 | 29.85702 | -94.18083 | 21117 ft | 461 kts | 93° |
| 2026-05-01 14:01 | 29.85655 | -94.14376 | 21529 ft | 466 kts | 93° |
| 2026-05-01 14:02 | 29.85585 | -94.10628 | 22007 ft | 470 kts | 93° |
| 2026-05-01 14:02 | 29.85488 | -94.06855 | 22495 ft | 473 kts | 94° |
| 2026-05-01 14:02 | 29.85556 | -94.03054 | 22984 ft | 477 kts | 84° |
| 2026-05-01 14:02 | 29.85932 | -93.99248 | 23456 ft | 479 kts | 83° |
| 2026-05-01 14:03 | 29.86329 | -93.95425 | 23866 ft | 482 kts | 83° |
| 2026-05-01 14:03 | 29.86739 | -93.91585 | 24273 ft | 484 kts | 83° |
| 2026-05-01 14:03 | 29.87156 | -93.87736 | 24675 ft | 486 kts | 82° |
| 2026-05-01 14:03 | 29.87569 | -93.83914 | 25076 ft | 487 kts | 83° |
| 2026-05-01 14:04 | 29.87985 | -93.80033 | 25475 ft | 489 kts | 83° |
| 2026-05-01 14:04 | 29.88398 | -93.76134 | 25858 ft | 491 kts | 83° |